Time;durP1;ratioP1;P1;durP2;ratioP2;P2;SDS_P1;SDS_P2;PMS_P1;PMS_P2;Temp;Humidity;BMP_temperature;BMP_pressure;BME280_temperature;BME280_humidity;BME280_pressure;Samples;Min_cycle;Max_cycle;Signal;HPM_P1;HPM_P2
2024/03/13 00:00:41;;;;;;;30.25;17.30;;;8.30;99.90;;;;;;5011221;28;20022;-49
2024/03/13 00:03:07;;;;;;;29.60;17.95;;;8.20;99.90;;;;;;5011273;28;20080;-51
2024/03/13 00:05:33;;;;;;;32.80;16.80;;;8.20;99.90;;;;;;5010121;28;20033;-51
2024/03/13 00:07:58;;;;;;;24.45;14.63;;;8.20;99.90;;;;;;5010404;28;20030;-51
2024/03/13 00:10:24;;;;;;;28.33;16.38;;;8.30;99.90;;;;;;5015065;28;20437;-51
2024/03/13 00:12:50;;;;;;;29.45;16.90;;;8.30;99.90;;;;;;5013531;28;20030;-55
2024/03/13 00:15:15;;;;;;;28.00;16.30;;;8.20;99.90;;;;;;5015057;28;20017;-51
2024/03/13 00:17:44;;;;;;;25.10;14.70;;;8.30;99.90;;;;;;5039426;23;20045;-51
2024/03/13 00:20:12;;;;;;;24.33;15.75;;;8.30;99.90;;;;;;5033957;28;20489;-52
2024/03/13 00:22:40;;;;;;;30.38;15.88;;;8.30;99.90;;;;;;5034802;28;20025;-54
2024/03/13 00:25:10;;;;;;;24.70;14.38;;;8.30;99.90;;;;;;5034104;28;20112;-52
2024/03/13 00:27:37;;;;;;;44.67;25.70;;;8.30;99.90;;;;;;5049563;28;20066;-55
2024/03/13 00:30:03;;;;;;;32.33;18.52;;;8.30;99.90;;;;;;5034234;28;20341;-48
2024/03/13 00:32:28;;;;;;;22.60;14.48;;;8.30;99.90;;;;;;5034575;28;20025;-51
2024/03/13 00:34:54;;;;;;;26.02;15.93;;;8.30;99.90;;;;;;5032840;28;20018;-54
2024/03/13 00:37:21;;;;;;;30.70;15.93;;;8.30;99.90;;;;;;5033856;28;20160;-49
2024/03/13 00:39:46;;;;;;;28.90;16.60;;;8.40;99.90;;;;;;5033990;28;20017;-56
2024/03/13 00:42:12;;;;;;;25.90;15.05;;;8.40;99.90;;;;;;5033913;28;20037;-55
2024/03/13 00:44:39;;;;;;;25.25;15.93;;;8.40;99.90;;;;;;5032633;28;20381;-51
2024/03/13 00:47:05;;;;;;;27.00;14.95;;;8.40;99.90;;;;;;5033815;28;20026;-56
2024/03/13 00:49:31;;;;;;;25.88;15.85;;;8.30;99.90;;;;;;5033600;28;20021;-51
2024/03/13 00:51:56;;;;;;;24.20;15.30;;;8.30;99.90;;;;;;5034044;28;20473;-53
2024/03/13 00:54:22;;;;;;;27.80;15.05;;;8.20;99.90;;;;;;5034513;28;20076;-54
2024/03/13 00:56:48;;;;;;;25.25;15.32;;;8.20;99.90;;;;;;5033640;28;20025;-52
2024/03/13 00:59:17;;;;;;;22.98;14.88;;;8.10;99.90;;;;;;5032287;28;20378;-51
2024/03/13 01:01:48;;;;;;;22.38;14.45;;;8.10;99.90;;;;;;5033452;28;20033;-52
2024/03/13 01:04:14;;;;;;;22.23;13.48;;;8.10;99.90;;;;;;5033512;28;20040;-56
2024/03/13 01:06:40;;;;;;;21.38;14.35;;;8.20;99.90;;;;;;5033626;28;20511;-55
2024/03/13 01:09:09;;;;;;;23.00;13.90;;;8.20;99.90;;;;;;5033808;28;20033;-53
2024/03/13 01:11:35;;;;;;;21.05;13.57;;;8.20;99.90;;;;;;5033517;28;20396;-52
2024/03/13 01:14:03;;;;;;;22.10;13.30;;;8.20;99.90;;;;;;5033460;28;20017;-52
2024/03/13 01:16:29;;;;;;;22.65;13.40;;;8.20;99.90;;;;;;5033383;28;20018;-53
2024/03/13 01:18:55;;;;;;;20.83;13.60;;;8.10;99.90;;;;;;5032771;28;20076;-50
2024/03/13 01:21:22;;;;;;;20.85;12.68;;;8.10;99.90;;;;;;5033718;28;20093;-53
2024/03/13 01:23:48;;;;;;;19.55;13.00;;;8.10;99.90;;;;;;5033257;28;20561;-55
2024/03/13 01:26:13;;;;;;;18.08;12.50;;;8.10;99.90;;;;;;5033235;28;20030;-52
2024/03/13 01:28:39;;;;;;;17.15;12.30;;;8.20;99.90;;;;;;5032972;28;20025;-52
2024/03/13 01:31:08;;;;;;;16.98;12.15;;;8.20;99.90;;;;;;5033232;28;20022;-49
2024/03/13 01:33:40;;;;;;;15.10;11.02;;;8.20;99.90;;;;;;5031921;28;20036;-54
2024/03/13 01:36:06;;;;;;;15.95;11.40;;;8.20;99.90;;;;;;5032864;28;20489;-53
2024/03/13 01:38:32;;;;;;;15.82;10.88;;;8.20;99.90;;;;;;5032960;28;20104;-51
2024/03/13 01:55:06;;;;;;;13.57;8.15;;;8.30;99.90;;;;;;5033134;28;20084;-53
2024/03/13 01:57:33;;;;;;;12.02;8.38;;;8.30;99.90;;;;;;5032523;28;20079;-54
2024/03/13 02:02:51;;;;;;;13.02;8.35;;;8.30;99.90;;;;;;5032848;28;20032;-52
2024/03/13 02:05:17;;;;;;;10.95;7.65;;;8.40;99.90;;;;;;5032537;28;20433;-55
2024/03/13 02:07:43;;;;;;;8.23;7.00;;;8.30;99.90;;;;;;5032337;28;20026;-50
2024/03/13 02:10:09;;;;;;;8.18;6.55;;;8.30;99.90;;;;;;5030718;28;20022;-52
2024/03/13 02:12:34;;;;;;;8.07;6.18;;;8.30;99.90;;;;;;5032562;28;20143;-54
2024/03/13 02:15:00;;;;;;;7.03;6.20;;;8.30;99.90;;;;;;5031219;28;20017;-51
2024/03/13 02:17:26;;;;;;;8.15;6.22;;;8.30;99.90;;;;;;5030658;28;20489;-51
2024/03/13 02:19:55;;;;;;;7.10;6.35;;;8.30;99.90;;;;;;5030893;28;20030;-54
2024/03/13 02:22:21;;;;;;;5.43;4.93;;;8.20;99.90;;;;;;5032089;28;20067;-55
2024/03/13 02:24:47;;;;;;;7.28;6.47;;;8.20;99.90;;;;;;5030913;28;20029;-52
2024/03/13 02:27:13;;;;;;;7.65;5.75;;;8.20;99.90;;;;;;5032010;28;20021;-53
2024/03/13 02:29:41;;;;;;;6.97;5.63;;;8.20;99.90;;;;;;5030500;28;20022;-54
2024/03/13 02:32:06;;;;;;;8.40;5.20;;;8.20;99.90;;;;;;5031456;28;20048;-53
2024/03/13 02:34:34;;;;;;;6.07;5.20;;;8.20;99.90;;;;;;5030690;28;20393;-53
2024/03/13 02:36:59;;;;;;;5.68;4.65;;;8.30;99.90;;;;;;5031918;28;20049;-52
2024/03/13 02:39:25;;;;;;;6.47;5.07;;;8.30;99.90;;;;;;5031657;28;20511;-52
2024/03/13 02:41:51;;;;;;;7.20;4.40;;;8.30;99.90;;;;;;5030621;28;20021;-56
2024/03/13 02:44:17;;;;;;;4.82;4.32;;;8.30;99.90;;;;;;5031782;28;20043;-54
2024/03/13 02:46:45;;;;;;;5.60;4.47;;;8.30;99.90;;;;;;5031400;28;20018;-56
2024/03/13 02:49:11;;;;;;;8.30;4.22;;;8.30;99.90;;;;;;5031409;28;20401;-54
2024/03/13 02:51:36;;;;;;;4.68;4.28;;;8.40;99.90;;;;;;5031487;28;20112;-51
2024/03/13 02:54:04;;;;;;;4.50;4.03;;;8.40;99.90;;;;;;5031913;28;20167;-51
2024/03/13 02:56:29;;;;;;;4.57;4.15;;;8.30;99.90;;;;;;5031510;28;20025;-52
2024/03/13 02:58:55;;;;;;;6.22;3.63;;;8.30;99.90;;;;;;5031307;28;20382;-52
2024/03/13 03:01:20;;;;;;;3.95;3.60;;;8.40;99.90;;;;;;5031463;28;20474;-53
2024/03/13 03:03:46;;;;;;;5.65;4.10;;;8.40;99.90;;;;;;5030218;28;20029;-50
2024/03/13 03:06:15;;;;;;;3.83;3.53;;;8.50;99.90;;;;;;5030014;28;20033;-57
2024/03/13 03:08:42;;;;;;;6.63;4.43;;;8.50;99.90;;;;;;5031014;28;20029;-52
2024/03/13 03:11:07;;;;;;;3.78;3.17;;;8.50;99.90;;;;;;5029972;28;20049;-51
2024/03/13 03:13:33;;;;;;;5.03;4.03;;;8.50;99.90;;;;;;5031354;28;20252;-52
2024/03/13 03:16:02;;;;;;;4.88;4.07;;;8.60;99.90;;;;;;5031172;28;20496;-55
2024/03/13 03:18:28;;;;;;;3.70;3.38;;;8.60;99.90;;;;;;5031294;28;20348;-55
2024/03/13 03:20:53;;;;;;;4.25;3.85;;;8.60;99.90;;;;;;5029526;28;20508;-50
2024/03/13 03:23:19;;;;;;;4.13;3.67;;;8.70;99.90;;;;;;5031092;28;20108;-52
2024/03/13 03:25:45;;;;;;;4.00;3.60;;;8.70;99.90;;;;;;5031121;28;20033;-54
2024/03/13 03:28:13;;;;;;;8.73;3.90;;;8.70;99.90;;;;;;5029685;28;20033;-53
2024/03/13 03:30:42;;;;;;;4.82;4.03;;;8.70;99.90;;;;;;5030944;28;20013;-53
2024/03/13 03:33:13;;;;;;;4.35;3.75;;;8.60;99.90;;;;;;5031330;28;20018;-49
2024/03/13 03:35:38;;;;;;;4.70;4.30;;;8.60;99.90;;;;;;5031247;28;20309;-53
2024/03/13 03:38:05;;;;;;;4.72;4.32;;;8.60;99.90;;;;;;5031357;28;20167;-51
2024/03/13 03:40:31;;;;;;;4.18;3.78;;;8.60;99.90;;;;;;5030854;28;20080;-54
2024/03/13 03:42:58;;;;;;;4.57;3.78;;;8.60;99.90;;;;;;5033198;28;20052;-53
2024/03/13 03:45:25;;;;;;;5.15;4.32;;;8.60;99.90;;;;;;5035694;28;20021;-52
2024/03/13 03:47:50;;;;;;;5.47;4.05;;;8.60;99.90;;;;;;5034892;28;20040;-52
2024/03/13 03:50:17;;;;;;;4.00;3.65;;;8.50;99.90;;;;;;5034670;28;20453;-52
2024/03/13 03:52:43;;;;;;;4.47;4.07;;;8.50;99.90;;;;;;5033785;28;20508;-50
2024/03/13 03:55:09;;;;;;;5.07;4.10;;;8.60;99.90;;;;;;5034855;28;20124;-51
2024/03/13 03:57:35;;;;;;;4.43;4.03;;;8.50;99.90;;;;;;5035123;28;20025;-55
2024/03/13 04:00:00;;;;;;;5.72;4.72;;;8.50;99.90;;;;;;5033554;28;20032;-55
2024/03/13 04:02:27;;;;;;;7.05;4.60;;;8.60;99.90;;;;;;5035194;28;20397;-50
2024/03/13 04:04:53;;;;;;;5.57;5.00;;;8.50;99.90;;;;;;5034733;28;20021;-54
2024/03/13 04:07:18;;;;;;;4.72;4.30;;;8.50;99.90;;;;;;5032990;28;20036;-55
2024/03/13 04:09:43;;;;;;;5.72;4.63;;;8.60;99.90;;;;;;5034445;28;20025;-56
2024/03/13 04:12:09;;;;;;;7.30;5.00;;;8.50;99.90;;;;;;5034659;28;20034;-55
2024/03/13 04:14:35;;;;;;;7.63;4.63;;;8.50;99.90;;;;;;5033411;28;20108;-54
2024/03/13 04:17:00;;;;;;;5.50;4.50;;;8.60;99.90;;;;;;5034767;28;20018;-55
2024/03/13 04:19:26;;;;;;;6.55;4.68;;;8.60;99.90;;;;;;5034347;28;20087;-55
2024/03/13 04:21:51;;;;;;;10.15;4.55;;;8.60;99.90;;;;;;5034384;28;20088;-54
2024/03/13 04:24:17;;;;;;;4.60;4.18;;;8.60;99.90;;;;;;5034343;28;20366;-52
2024/03/13 04:26:45;;;;;;;5.53;3.83;;;8.60;99.90;;;;;;5034446;28;20060;-58
2024/03/13 04:29:11;;;;;;;5.32;4.57;;;8.60;99.90;;;;;;5034074;28;20028;-54
2024/03/13 04:31:39;;;;;;;5.63;4.30;;;8.60;99.90;;;;;;5033887;28;20029;-54
2024/03/13 04:34:06;;;;;;;5.10;4.55;;;8.60;99.90;;;;;;5034223;28;20401;-54
2024/03/13 04:36:35;;;;;;;6.43;4.57;;;8.70;99.90;;;;;;5034129;28;20029;-51
2024/03/13 04:39:01;;;;;;;5.07;4.32;;;8.60;99.90;;;;;;5032678;28;20026;-53
2024/03/13 04:41:26;;;;;;;4.25;3.83;;;8.60;99.90;;;;;;5034585;28;20481;-51
2024/03/13 04:43:52;;;;;;;4.88;4.32;;;8.60;99.90;;;;;;5034238;28;20035;-52
2024/03/13 04:46:18;;;;;;;6.20;4.78;;;8.60;99.90;;;;;;5033934;28;20029;-52
2024/03/13 04:48:47;;;;;;;7.18;4.53;;;8.60;99.90;;;;;;5033754;28;20520;-55
2024/03/13 04:51:14;;;;;;;4.75;4.35;;;8.60;99.90;;;;;;5033782;28;20017;-50
2024/03/13 04:53:39;;;;;;;5.85;5.25;;;8.60;99.90;;;;;;5033159;28;20021;-57
2024/03/13 04:56:06;;;;;;;4.85;4.40;;;8.60;99.90;;;;;;5033888;28;20585;-52
2024/03/13 04:58:33;;;;;;;7.30;4.93;;;8.60;99.90;;;;;;5033955;28;20030;-51
2024/03/13 05:00:58;;;;;;;5.72;5.20;;;8.60;99.90;;;;;;5033748;28;20468;-53
2024/03/13 05:03:24;;;;;;;6.40;5.22;;;8.60;99.90;;;;;;5033662;28;20108;-53
2024/03/13 05:05:50;;;;;;;7.60;5.15;;;8.60;99.90;;;;;;5032131;28;20128;-50
2024/03/13 05:08:16;;;;;;;6.95;5.18;;;8.60;99.90;;;;;;5033696;28;20025;-49
2024/03/13 05:10:42;;;;;;;6.20;5.35;;;8.60;99.90;;;;;;5033471;28;20148;-51
2024/03/13 05:13:08;;;;;;;5.25;4.68;;;8.60;99.90;;;;;;5033877;28;20017;-56
2024/03/13 05:15:33;;;;;;;5.95;5.32;;;8.60;99.90;;;;;;5033687;28;20029;-53
2024/03/13 05:17:59;;;;;;;5.20;4.70;;;8.80;99.90;;;;;;5032219;28;20033;-55
2024/03/13 05:20:25;;;;;;;6.85;5.43;;;8.80;99.90;;;;;;5032203;28;20420;-55
2024/03/13 05:22:51;;;;;;;7.45;5.53;;;8.80;99.90;;;;;;5033390;28;20025;-55
2024/03/13 05:25:22;;;;;;;5.75;5.03;;;8.80;99.90;;;;;;5031911;28;20527;-48
2024/03/13 05:27:50;;;;;;;6.45;5.50;;;8.80;99.90;;;;;;5032134;28;20119;-51
2024/03/13 05:30:16;;;;;;;7.18;5.53;;;8.80;99.90;;;;;;5033087;28;20026;-52
2024/03/13 05:32:43;;;;;;;6.80;5.55;;;8.80;99.90;;;;;;5033371;28;20068;-54
2024/03/13 05:35:09;;;;;;;10.20;7.22;;;8.80;99.90;;;;;;5033172;28;20457;-55
2024/03/13 05:37:35;;;;;;;11.88;7.22;;;8.90;99.90;;;;;;5032935;28;20076;-54
2024/03/13 05:40:21;;;;;;;8.45;6.47;;;8.90;99.90;;;;;;5032610;28;20026;-51
2024/03/13 05:42:47;;;;;;;7.45;6.03;;;8.80;99.90;;;;;;5033005;28;20036;-54
2024/03/13 05:45:15;;;;;;;7.85;6.82;;;8.80;99.90;;;;;;5032955;28;20025;-49
2024/03/13 05:47:41;;;;;;;8.98;6.38;;;8.80;99.90;;;;;;5031370;28;20025;-52
2024/03/13 05:50:07;;;;;;;9.13;7.20;;;8.80;99.90;;;;;;5032450;28;20120;-52
2024/03/13 05:52:33;;;;;;;9.18;6.75;;;8.80;99.90;;;;;;5032717;28;20021;-55
2024/03/13 05:54:59;;;;;;;7.90;6.57;;;8.80;99.90;;;;;;5032829;28;20041;-53
2024/03/13 05:57:25;;;;;;;7.45;6.32;;;8.80;99.90;;;;;;5032629;28;20053;-51
2024/03/13 05:59:50;;;;;;;8.52;7.03;;;8.80;99.90;;;;;;5032837;28;20543;-56
2024/03/13 06:02:16;;;;;;;13.50;7.25;;;8.90;99.90;;;;;;5033118;28;20021;-52
2024/03/13 06:04:42;;;;;;;7.82;6.75;;;8.90;99.90;;;;;;5032730;28;20061;-53
2024/03/13 06:07:08;;;;;;;8.82;6.32;;;8.90;99.90;;;;;;5031469;28;20026;-52
2024/03/13 06:09:33;;;;;;;10.98;7.78;;;8.90;99.90;;;;;;5047691;28;20064;-49
2024/03/13 06:11:59;;;;;;;8.27;7.28;;;8.90;99.90;;;;;;5032620;28;20056;-49
2024/03/13 06:14:25;;;;;;;9.10;7.18;;;8.90;99.90;;;;;;5031033;28;20457;-51
2024/03/13 06:16:50;;;;;;;8.60;6.95;;;8.90;99.90;;;;;;5031169;28;20377;-52
2024/03/13 06:19:16;;;;;;;11.13;6.93;;;9.00;99.90;;;;;;5042368;23;20436;-48
2024/03/13 06:21:41;;;;;;;11.20;7.05;;;9.00;99.90;;;;;;5031174;28;20022;-49
2024/03/13 06:24:07;;;;;;;8.40;6.97;;;9.00;99.90;;;;;;5017713;28;20481;-52
2024/03/13 06:26:33;;;;;;;7.57;6.78;;;9.00;99.90;;;;;;5012454;28;20022;-50
2024/03/13 06:31:43;;;;;;;9.30;7.03;;;9.00;99.90;;;;;;5012657;28;20689;-49
2024/03/13 06:34:08;;;;;;;8.13;6.72;;;9.00;99.90;;;;;;5012707;28;20026;-52
2024/03/13 06:36:39;;;;;;;8.00;7.03;;;9.00;99.90;;;;;;5012495;28;20153;-51
2024/03/13 06:39:04;;;;;;;8.43;6.97;;;9.00;99.90;;;;;;5012797;28;20026;-50
2024/03/13 06:41:30;;;;;;;7.68;6.90;;;9.10;99.90;;;;;;5012947;28;20033;-49
2024/03/13 06:43:56;;;;;;;6.88;6.18;;;9.20;99.90;;;;;;5012478;28;20096;-53
2024/03/13 06:46:24;;;;;;;7.45;6.68;;;9.30;99.90;;;;;;5011212;28;20120;-50
2024/03/13 06:48:50;;;;;;;9.30;7.80;;;9.20;99.90;;;;;;5012319;28;20033;-54
2024/03/13 06:51:16;;;;;;;10.20;6.72;;;9.30;99.90;;;;;;5012178;28;20106;-56
2024/03/13 06:53:41;;;;;;;9.00;7.53;;;9.30;99.90;;;;;;5012764;28;20026;-49
2024/03/13 06:56:07;;;;;;;10.95;6.90;;;9.30;99.90;;;;;;5012673;28;20108;-51
2024/03/13 06:58:33;;;;;;;8.32;7.38;;;9.30;99.90;;;;;;5013054;28;20444;-50
2024/03/13 07:00:58;;;;;;;9.13;6.95;;;9.40;99.90;;;;;;5012840;28;20032;-52
2024/03/13 07:03:24;;;;;;;7.93;7.00;;;9.30;99.90;;;;;;5013045;28;20510;-49
2024/03/13 07:05:53;;;;;;;8.70;6.97;;;9.30;99.90;;;;;;5013236;28;20223;-50
2024/03/13 07:08:19;;;;;;;10.75;7.38;;;9.30;99.90;;;;;;5013200;28;20105;-50
2024/03/13 07:10:46;;;;;;;8.85;7.45;;;9.40;99.90;;;;;;5018808;28;20054;-54
2024/03/13 07:13:12;;;;;;;9.82;7.57;;;9.40;99.90;;;;;;5032363;28;20037;-51
2024/03/13 07:15:43;;;;;;;10.65;7.78;;;9.50;99.90;;;;;;5012147;28;20026;-47
2024/03/13 07:18:09;;;;;;;11.80;8.93;;;9.40;99.90;;;;;;5011562;28;20033;-52
2024/03/13 07:20:34;;;;;;;11.60;8.60;;;9.40;99.90;;;;;;5012000;28;20040;-49
2024/03/13 07:23:00;;;;;;;13.88;7.97;;;9.40;99.90;;;;;;5011984;28;20026;-47
2024/03/13 07:25:25;;;;;;;10.50;8.07;;;9.30;99.90;;;;;;5012087;28;20486;-49
2024/03/13 07:27:51;;;;;;;13.13;8.88;;;9.30;99.90;;;;;;5012068;28;20048;-52
2024/03/13 07:30:16;;;;;;;17.77;10.02;;;9.40;99.90;;;;;;5011835;28;20379;-49
2024/03/13 07:32:42;;;;;;;14.38;10.38;;;9.40;99.90;;;;;;5011484;28;20077;-51
2024/03/13 07:35:10;;;;;;;17.35;10.15;;;9.50;99.90;;;;;;5011823;28;20073;-47
2024/03/13 07:37:36;;;;;;;15.00;9.80;;;9.50;99.90;;;;;;5011664;28;20073;-49
2024/03/13 07:40:03;;;;;;;15.40;10.32;;;9.50;99.90;;;;;;5011449;28;20018;-49
2024/03/13 07:42:28;;;;;;;17.85;11.20;;;9.50;99.90;;;;;;5011596;28;20097;-48
2024/03/13 07:44:54;;;;;;;17.50;10.50;;;9.40;99.90;;;;;;5011630;28;20105;-52
2024/03/13 07:47:21;;;;;;;20.15;11.85;;;9.40;99.90;;;;;;5026618;28;20155;-48
2024/03/13 07:49:47;;;;;;;16.50;11.40;;;9.40;99.90;;;;;;5011340;28;20022;-50
2024/03/13 07:52:13;;;;;;;19.20;11.48;;;9.50;99.90;;;;;;5011273;28;20033;-50
2024/03/13 07:54:39;;;;;;;19.20;13.18;;;9.50;99.90;;;;;;5011530;28;20085;-48
2024/03/13 07:57:05;;;;;;;20.50;11.85;;;9.50;99.90;;;;;;5011472;28;20393;-52
2024/03/13 07:59:31;;;;;;;23.67;13.20;;;9.50;99.90;;;;;;5011632;28;20029;-54
2024/03/13 08:01:56;;;;;;;20.60;12.73;;;9.60;99.90;;;;;;5011426;28;20026;-54
2024/03/13 08:04:24;;;;;;;19.08;13.02;;;9.50;99.90;;;;;;5011392;28;20079;-50
2024/03/13 08:06:53;;;;;;;18.05;12.43;;;9.50;99.90;;;;;;5011372;28;20076;-50
2024/03/13 08:09:19;;;;;;;19.08;12.88;;;9.50;99.90;;;;;;5009798;28;20495;-50
2024/03/13 08:11:44;;;;;;;17.60;12.82;;;9.50;99.90;;;;;;5011323;28;20110;-51
2024/03/13 08:14:10;;;;;;;19.70;13.05;;;9.50;99.90;;;;;;5011577;28;20026;-52
2024/03/13 08:16:35;;;;;;;15.48;11.43;;;9.50;99.90;;;;;;5011545;28;20057;-49
2024/03/13 08:19:01;;;;;;;19.90;12.23;;;9.50;99.90;;;;;;5010977;28;20129;-49
2024/03/13 08:21:26;;;;;;;20.95;12.88;;;9.50;99.90;;;;;;5011533;28;20540;-48
2024/03/13 08:23:52;;;;;;;18.60;12.70;;;9.60;99.90;;;;;;5011273;28;20414;-49
2024/03/13 08:26:18;;;;;;;17.33;12.20;;;9.70;99.90;;;;;;5011042;28;20030;-49
2024/03/13 08:28:43;;;;;;;19.27;12.10;;;9.60;99.90;;;;;;5010888;28;20410;-53
2024/03/13 08:31:10;;;;;;;18.58;13.13;;;9.70;99.90;;;;;;5014683;28;20073;-48
2024/03/13 08:33:36;;;;;;;18.42;12.93;;;9.70;99.90;;;;;;5014682;28;20148;-48
2024/03/13 08:36:02;;;;;;;17.58;12.65;;;9.60;99.90;;;;;;5029746;28;20113;-52
2024/03/13 08:38:29;;;;;;;17.90;12.82;;;9.60;99.90;;;;;;5014853;28;20026;-53
2024/03/13 08:40:55;;;;;;;17.75;12.70;;;9.70;99.90;;;;;;5013071;28;20033;-49
2024/03/13 08:43:21;;;;;;;14.25;11.05;;;9.80;99.90;;;;;;5013253;28;20485;-52
2024/03/13 08:45:47;;;;;;;18.15;12.98;;;9.80;99.90;;;;;;5014401;28;20022;-50
2024/03/13 08:48:13;;;;;;;19.75;12.68;;;9.90;99.90;;;;;;5014363;28;20401;-50
2024/03/13 08:50:38;;;;;;;17.88;12.30;;;9.90;99.90;;;;;;5014030;28;20026;-48
2024/03/13 08:53:04;;;;;;;13.70;10.75;;;9.90;99.90;;;;;;5034666;28;20095;-50
2024/03/13 08:55:34;;;;;;;15.23;10.80;;;10.00;99.90;;;;;;5034158;28;20064;-47
2024/03/13 08:58:00;;;;;;;15.85;12.43;;;9.90;99.90;;;;;;5032624;28;20022;-46
2024/03/13 09:00:26;;;;;;;14.75;11.55;;;9.90;99.90;;;;;;5033772;28;20036;-46
2024/03/13 09:02:55;;;;;;;15.35;11.52;;;9.90;99.90;;;;;;5033850;28;20030;-46
2024/03/13 09:05:21;;;;;;;13.38;11.93;;;9.90;99.90;;;;;;5034063;28;20516;-48
2024/03/13 09:07:47;;;;;;;17.20;12.63;;;10.00;99.90;;;;;;5033534;28;20025;-51
2024/03/13 09:10:12;;;;;;;14.35;11.75;;;10.00;99.90;;;;;;5032600;28;20049;-51
2024/03/13 09:12:38;;;;;;;16.05;12.02;;;10.10;99.90;;;;;;5032582;28;20026;-48
2024/03/13 09:15:05;;;;;;;17.30;13.00;;;10.20;99.90;;;;;;5033524;28;20020;-51
2024/03/13 09:17:31;;;;;;;16.55;13.35;;;10.20;99.90;;;;;;5033480;28;20048;-47
2024/03/13 09:19:56;;;;;;;14.23;12.10;;;10.20;99.90;;;;;;5033318;28;20036;-49
2024/03/13 09:22:22;;;;;;;19.48;14.75;;;10.30;99.90;;;;;;5033529;28;20026;-44
2024/03/13 09:24:48;;;;;;;17.02;12.35;;;10.30;99.90;;;;;;5032574;28;20052;-47
2024/03/13 09:27:13;;;;;;;17.70;14.38;;;10.40;99.90;;;;;;5031813;28;20032;-52
2024/03/13 09:29:39;;;;;;;19.55;14.90;;;10.40;99.90;;;;;;5031715;28;20033;-48
2024/03/13 09:32:05;;;;;;;19.55;13.30;;;10.40;99.90;;;;;;5032005;28;20033;-52
2024/03/13 09:34:31;;;;;;;18.52;14.80;;;10.50;99.90;;;;;;5033231;28;20021;-46
2024/03/13 09:37:04;;;;;;;16.02;13.77;;;10.40;99.90;;;;;;5033293;28;20060;-52
2024/03/13 09:39:32;;;;;;;19.70;14.35;;;10.50;99.90;;;;;;5031492;28;20393;-50
2024/03/13 09:41:58;;;;;;;21.38;14.98;;;10.50;99.90;;;;;;5032912;28;20107;-47
2024/03/13 09:44:27;;;;;;;18.50;14.45;;;10.60;99.90;;;;;;5033118;28;20030;-48
2024/03/13 09:46:54;;;;;;;19.75;13.82;;;10.60;99.90;;;;;;5031700;28;20556;-46
2024/03/13 09:49:25;;;;;;;17.73;13.95;;;10.50;99.90;;;;;;5032800;28;20029;-50
2024/03/13 09:51:51;;;;;;;18.65;15.38;;;10.50;99.90;;;;;;5032925;28;20021;-50
2024/03/13 09:54:19;;;;;;;16.85;14.13;;;10.40;99.90;;;;;;5032534;28;20091;-49
2024/03/13 09:56:46;;;;;;;21.38;15.65;;;10.50;99.90;;;;;;5032548;28;20396;-51
2024/03/13 09:59:12;;;;;;;24.13;16.85;;;10.50;99.90;;;;;;5031171;28;20029;-51
2024/03/13 10:01:46;;;;;;;21.27;15.63;;;10.50;99.90;;;;;;5032309;28;20025;-48
2024/03/13 10:04:16;;;;;;;21.58;15.85;;;10.60;99.90;;;;;;5032688;28;20132;-49
2024/03/13 10:06:43;;;;;;;16.55;14.50;;;10.60;99.90;;;;;;5032755;28;20059;-46
2024/03/13 10:09:12;;;;;;;16.10;13.52;;;10.70;99.90;;;;;;5032244;28;20029;-52
2024/03/13 10:11:44;;;;;;;16.77;13.32;;;10.60;99.90;;;;;;5032567;28;20095;-51
2024/03/13 10:14:11;;;;;;;16.38;13.60;;;10.60;99.90;;;;;;5032138;28;20488;-51
2024/03/13 10:16:39;;;;;;;16.23;13.90;;;10.60;99.90;;;;;;5048144;28;20029;-47
2024/03/13 10:19:06;;;;;;;16.70;14.00;;;10.60;99.90;;;;;;5052055;28;20492;-50
2024/03/13 10:21:32;;;;;;;18.92;13.70;;;10.60;99.90;;;;;;5052467;28;20469;-48
2024/03/13 10:23:59;;;;;;;19.33;13.57;;;10.70;99.90;;;;;;5046011;28;20025;-55
2024/03/13 10:26:26;;;;;;;24.00;18.50;;;10.70;99.90;;;;;;5032327;28;20029;-53
2024/03/13 10:28:52;;;;;;;26.30;19.95;;;10.70;99.90;;;;;;5031980;28;20021;-52
2024/03/13 10:31:18;;;;;;;117.82;68.53;;;10.80;99.90;;;;;;5031848;28;20032;-52
2024/03/13 10:33:44;;;;;;;23.42;17.95;;;10.90;99.90;;;;;;5031674;28;20018;-54
2024/03/13 10:36:11;;;;;;;16.27;12.27;;;10.90;99.90;;;;;;5035818;28;20025;-53
2024/03/13 10:38:37;;;;;;;15.00;13.25;;;11.00;99.90;;;;;;5052006;28;20071;-50
2024/03/13 10:41:03;;;;;;;16.92;12.65;;;11.00;99.90;;;;;;5040011;28;20489;-48
2024/03/13 10:43:31;;;;;;;13.55;12.10;;;11.00;99.90;;;;;;5032187;28;20112;-49
2024/03/13 10:45:57;;;;;;;13.35;11.73;;;11.10;99.90;;;;;;5032306;28;20072;-44
2024/03/13 10:48:23;;;;;;;13.13;10.32;;;11.00;99.90;;;;;;5032354;28;20045;-51
2024/03/13 10:50:49;;;;;;;11.50;9.77;;;11.10;99.90;;;;;;5031910;28;20022;-49
2024/03/13 10:53:16;;;;;;;14.63;11.70;;;11.10;99.90;;;;;;5031039;28;20444;-50
2024/03/13 10:55:42;;;;;;;15.80;12.88;;;11.10;99.90;;;;;;5031643;28;20025;-50
2024/03/13 10:58:22;;;;;;;15.23;11.68;;;11.20;99.90;;;;;;5030357;28;20025;-50
2024/03/13 11:00:49;;;;;;;14.32;11.10;;;11.10;99.90;;;;;;5031459;28;20079;-54
2024/03/13 11:03:15;;;;;;;15.40;13.80;;;11.10;99.90;;;;;;5031749;28;20041;-49
2024/03/13 11:05:41;;;;;;;16.48;13.68;;;11.20;99.90;;;;;;5031654;28;20033;-53
2024/03/13 11:08:07;;;;;;;16.17;13.30;;;11.20;99.90;;;;;;5031257;28;20041;-51
2024/03/13 11:10:34;;;;;;;16.25;12.88;;;11.10;99.90;;;;;;5031214;28;20025;-51
2024/03/13 11:13:04;;;;;;;16.75;12.57;;;11.20;99.90;;;;;;5031380;28;20083;-53
2024/03/13 11:15:32;;;;;;;16.23;12.82;;;11.20;99.90;;;;;;5031905;28;20022;-49
2024/03/13 11:18:01;;;;;;;14.88;12.07;;;11.30;99.90;;;;;;5028064;28;20038;-57
2024/03/13 11:20:50;;;;;;;15.05;12.63;;;11.30;99.90;;;;;;5011597;28;20022;-51
2024/03/13 11:23:23;;;;;;;19.25;12.93;;;11.30;99.90;;;;;;5019276;28;20091;-53
2024/03/13 11:25:50;;;;;;;16.15;13.20;;;11.40;99.90;;;;;;5031536;28;20025;-50
2024/03/13 11:28:27;;;;;;;17.20;13.25;;;11.50;99.90;;;;;;5016836;28;20559;-49
2024/03/13 11:30:53;;;;;;;14.68;11.98;;;11.50;99.90;;;;;;5011352;28;20030;-52
2024/03/13 11:33:20;;;;;;;15.57;12.63;;;11.50;99.90;;;;;;5011710;28;20401;-55
2024/03/13 11:35:46;;;;;;;16.15;11.35;;;11.50;99.90;;;;;;5011562;28;20018;-60
2024/03/13 11:38:12;;;;;;;13.02;10.18;;;11.60;99.90;;;;;;5010170;28;20026;-55
2024/03/13 11:40:40;;;;;;;19.45;14.15;;;11.50;99.90;;;;;;5022968;28;20025;-52
2024/03/13 11:43:05;;;;;;;18.17;15.20;;;11.60;99.90;;;;;;5030863;28;20021;-53
2024/03/13 11:45:40;;;;;;;18.70;15.20;;;11.50;99.90;;;;;;5030965;28;20040;-52
2024/03/13 11:48:16;;;;;;;22.23;17.13;;;11.50;99.90;;;;;;5031135;28;20076;-52
2024/03/13 11:51:08;;;;;;;24.55;13.85;;;11.40;99.90;;;;;;5034020;28;20451;-51
2024/03/13 11:53:34;;;;;;;18.13;14.75;;;11.50;99.90;;;;;;5031327;28;20033;-54
2024/03/13 11:56:04;;;;;;;17.45;14.57;;;11.60;99.90;;;;;;5031082;28;20021;-55
2024/03/13 11:58:33;;;;;;;13.52;12.05;;;11.70;99.90;;;;;;5030132;28;20034;-55
2024/03/13 12:00:59;;;;;;;13.38;11.13;;;11.70;99.90;;;;;;5030986;28;20060;-55
2024/03/13 12:03:43;;;;;;;13.73;11.50;;;11.80;99.90;;;;;;5032176;28;20025;-55
2024/03/13 12:06:21;;;;;;;13.23;10.57;;;11.80;99.90;;;;;;5034801;28;20439;-58
2024/03/13 12:08:48;;;;;;;11.43;9.85;;;11.90;99.90;;;;;;5034531;28;20030;-55
2024/03/13 12:11:17;;;;;;;11.43;10.32;;;11.90;99.90;;;;;;5034856;28;20029;-53
2024/03/13 12:13:44;;;;;;;11.13;9.20;;;12.00;99.90;;;;;;5035083;28;20018;-56
2024/03/13 12:16:13;;;;;;;11.60;10.45;;;12.10;99.90;;;;;;5034502;28;20026;-57
2024/03/13 12:18:44;;;;;;;12.27;10.98;;;12.20;99.90;;;;;;5054013;23;20492;-57
2024/03/13 12:21:10;;;;;;;12.85;11.40;;;12.30;99.90;;;;;;5034804;28;20029;-58
2024/03/13 12:23:36;;;;;;;12.88;10.88;;;12.40;99.90;;;;;;5029669;28;20427;-58
2024/03/13 12:26:02;;;;;;;10.95;9.85;;;12.40;99.90;;;;;;5014908;28;20022;-52
2024/03/13 12:28:28;;;;;;;11.23;10.02;;;12.50;99.90;;;;;;5048435;28;20695;-53
2024/03/13 12:30:54;;;;;;;132.18;86.82;;;12.50;99.90;;;;;;5016807;28;20408;-56
2024/03/13 12:33:19;;;;;;;151.10;93.10;;;12.50;99.90;;;;;;5016609;28;20022;-54
2024/03/13 12:35:55;;;;;;;14.82;12.68;;;12.50;99.90;;;;;;5016230;28;20397;-53
2024/03/13 12:38:35;;;;;;;12.55;10.82;;;12.50;99.90;;;;;;5016353;28;20430;-58
2024/03/13 12:41:00;;;;;;;12.23;11.02;;;12.50;99.90;;;;;;5033763;28;20026;-58
2024/03/13 12:43:27;;;;;;;13.30;11.25;;;12.50;99.90;;;;;;5016344;28;20051;-59
2024/03/13 12:45:53;;;;;;;12.38;11.15;;;12.30;99.90;;;;;;5034055;28;20040;-55
2024/03/13 12:48:19;;;;;;;17.60;13.88;;;12.30;99.90;;;;;;5016081;28;20029;-58
2024/03/13 12:50:44;;;;;;;16.15;12.13;;;12.30;99.90;;;;;;5023901;28;20021;-51
2024/03/13 12:53:11;;;;;;;16.77;12.18;;;12.40;99.90;;;;;;5019261;28;20078;-60
2024/03/13 12:55:36;;;;;;;14.13;12.48;;;12.30;99.90;;;;;;5033649;28;20029;-50
2024/03/13 12:58:06;;;;;;;16.23;13.05;;;12.30;99.90;;;;;;5033961;28;20447;-53